Lakeland, Florida
Current Conditions -  °F | °C
As of 10:50 AM on Friday 28 Nov 2014 (Local Time) from KLAL Reporting Station
Clear Clear  
Wind Chill: 52°   Ceiling: Unl
Heat Index: 52°   Visibility: 15mi
Dew Point: 36°   Wind: 6mph
Humidity: 54%   Direction: 30°NNE
Pressure: 30.34"   Gusts: NA
Location:  28.04°N, 81.95°W
Report Text: KLAL 281550Z 03005KT 15SM SKC 11/02 A3034
Loading
Personal Weather Stations






























Interactive Weather Map New forecast layout! Learn more

10-Day Weather Forecast

Advertisements
Track Severe Weather on mobile